sensor_id;sensor_type;location;lat;lon;timestamp;P1;durP1;ratioP1;P2;durP2;ratioP2
18435;SDS011;9346;52.006;4.720;2023-05-31T00:00:05;5.10;;;2.47;;
18435;SDS011;9346;52.006;4.720;2023-05-31T00:02:34;4.63;;;3.10;;
18435;SDS011;9346;52.006;4.720;2023-05-31T00:05:01;3.40;;;2.60;;
18435;SDS011;9346;52.006;4.720;2023-05-31T00:07:30;3.93;;;2.90;;
18435;SDS011;9346;52.006;4.720;2023-05-31T00:09:57;4.77;;;3.57;;
18435;SDS011;9346;52.006;4.720;2023-05-31T00:12:25;3.83;;;2.63;;
18435;SDS011;9346;52.006;4.720;2023-05-31T00:14:52;5.73;;;3.20;;
18435;SDS011;9346;52.006;4.720;2023-05-31T00:17:19;5.87;;;3.13;;
18435;SDS011;9346;52.006;4.720;2023-05-31T00:19:46;7.37;;;3.17;;
18435;SDS011;9346;52.006;4.720;2023-05-31T00:22:13;4.73;;;2.80;;
18435;SDS011;9346;52.006;4.720;2023-05-31T00:24:43;5.30;;;3.33;;
18435;SDS011;9346;52.006;4.720;2023-05-31T00:27:10;5.87;;;3.47;;
18435;SDS011;9346;52.006;4.720;2023-05-31T00:29:37;5.17;;;2.67;;
18435;SDS011;9346;52.006;4.720;2023-05-31T00:32:04;4.60;;;3.27;;
18435;SDS011;9346;52.006;4.720;2023-05-31T00:34:31;5.00;;;2.97;;
18435;SDS011;9346;52.006;4.720;2023-05-31T00:36:58;4.27;;;2.97;;
18435;SDS011;9346;52.006;4.720;2023-05-31T00:39:25;8.37;;;2.90;;
18435;SDS011;9346;52.006;4.720;2023-05-31T00:41:54;4.17;;;3.33;;
18435;SDS011;9346;52.006;4.720;2023-05-31T00:44:20;6.97;;;3.20;;
18435;SDS011;9346;52.006;4.720;2023-05-31T00:46:47;4.20;;;3.03;;
18435;SDS011;9346;52.006;4.720;2023-05-31T00:49:17;7.03;;;3.60;;
18435;SDS011;9346;52.006;4.720;2023-05-31T00:51:44;4.33;;;3.03;;
18435;SDS011;9346;52.006;4.720;2023-05-31T00:54:12;5.80;;;3.10;;
18435;SDS011;9346;52.006;4.720;2023-05-31T00:56:39;10.17;;;3.50;;
18435;SDS011;9346;52.006;4.720;2023-05-31T00:59:08;6.13;;;3.20;;
18435;SDS011;9346;52.006;4.720;2023-05-31T01:01:35;4.27;;;3.20;;
18435;SDS011;9346;52.006;4.720;2023-05-31T01:04:02;5.77;;;3.50;;
18435;SDS011;9346;52.006;4.720;2023-05-31T01:06:29;7.00;;;3.67;;
18435;SDS011;9346;52.006;4.720;2023-05-31T01:08:57;4.90;;;3.30;;
18435;SDS011;9346;52.006;4.720;2023-05-31T01:11:29;5.00;;;2.90;;
18435;SDS011;9346;52.006;4.720;2023-05-31T01:14:04;9.80;;;3.77;;
18435;SDS011;9346;52.006;4.720;2023-05-31T01:16:45;6.70;;;3.27;;
18435;SDS011;9346;52.006;4.720;2023-05-31T01:19:20;6.23;;;3.47;;
18435;SDS011;9346;52.006;4.720;2023-05-31T01:22:01;5.80;;;3.57;;
18435;SDS011;9346;52.006;4.720;2023-05-31T01:24:43;4.83;;;3.00;;
18435;SDS011;9346;52.006;4.720;2023-05-31T01:27:19;6.80;;;4.10;;
18435;SDS011;9346;52.006;4.720;2023-05-31T01:29:48;7.10;;;3.87;;
18435;SDS011;9346;52.006;4.720;2023-05-31T01:32:17;8.73;;;3.40;;
18435;SDS011;9346;52.006;4.720;2023-05-31T01:34:45;5.53;;;3.10;;
18435;SDS011;9346;52.006;4.720;2023-05-31T01:37:14;5.40;;;3.00;;
18435;SDS011;9346;52.006;4.720;2023-05-31T01:39:41;8.03;;;3.73;;
18435;SDS011;9346;52.006;4.720;2023-05-31T01:42:09;6.27;;;2.93;;
18435;SDS011;9346;52.006;4.720;2023-05-31T01:44:40;6.17;;;3.23;;
18435;SDS011;9346;52.006;4.720;2023-05-31T01:47:09;7.50;;;4.23;;
18435;SDS011;9346;52.006;4.720;2023-05-31T01:49:38;4.27;;;3.33;;
18435;SDS011;9346;52.006;4.720;2023-05-31T01:52:05;5.57;;;3.53;;
18435;SDS011;9346;52.006;4.720;2023-05-31T01:54:35;7.67;;;3.97;;
18435;SDS011;9346;52.006;4.720;2023-05-31T01:57:02;7.53;;;3.70;;
18435;SDS011;9346;52.006;4.720;2023-05-31T01:59:31;5.97;;;3.63;;
18435;SDS011;9346;52.006;4.720;2023-05-31T02:02:02;4.93;;;3.47;;
18435;SDS011;9346;52.006;4.720;2023-05-31T02:04:31;7.57;;;3.50;;
18435;SDS011;9346;52.006;4.720;2023-05-31T02:06:58;5.13;;;3.10;;
18435;SDS011;9346;52.006;4.720;2023-05-31T02:09:25;7.53;;;3.17;;
18435;SDS011;9346;52.006;4.720;2023-05-31T02:11:52;5.73;;;3.37;;
18435;SDS011;9346;52.006;4.720;2023-05-31T02:14:19;8.60;;;4.37;;
18435;SDS011;9346;52.006;4.720;2023-05-31T02:16:46;5.60;;;3.53;;
18435;SDS011;9346;52.006;4.720;2023-05-31T02:19:15;7.60;;;4.40;;
18435;SDS011;9346;52.006;4.720;2023-05-31T02:21:44;7.03;;;3.80;;
18435;SDS011;9346;52.006;4.720;2023-05-31T02:24:11;7.70;;;4.13;;
18435;SDS011;9346;52.006;4.720;2023-05-31T02:26:37;7.90;;;4.00;;
18435;SDS011;9346;52.006;4.720;2023-05-31T02:29:04;9.07;;;3.87;;
18435;SDS011;9346;52.006;4.720;2023-05-31T02:31:31;8.47;;;4.17;;
18435;SDS011;9346;52.006;4.720;2023-05-31T02:33:58;6.97;;;3.90;;
18435;SDS011;9346;52.006;4.720;2023-05-31T02:36:27;4.90;;;3.40;;
18435;SDS011;9346;52.006;4.720;2023-05-31T02:38:55;9.57;;;4.27;;
18435;SDS011;9346;52.006;4.720;2023-05-31T02:41:22;5.73;;;3.60;;
18435;SDS011;9346;52.006;4.720;2023-05-31T02:43:52;6.13;;;4.40;;
18435;SDS011;9346;52.006;4.720;2023-05-31T02:46:19;5.03;;;3.53;;
18435;SDS011;9346;52.006;4.720;2023-05-31T02:48:47;6.30;;;3.43;;
18435;SDS011;9346;52.006;4.720;2023-05-31T02:51:14;6.90;;;4.00;;
18435;SDS011;9346;52.006;4.720;2023-05-31T02:53:43;7.13;;;4.43;;
18435;SDS011;9346;52.006;4.720;2023-05-31T02:56:10;7.47;;;4.03;;
18435;SDS011;9346;52.006;4.720;2023-05-31T02:58:37;7.27;;;3.77;;
18435;SDS011;9346;52.006;4.720;2023-05-31T03:01:05;8.50;;;4.50;;
18435;SDS011;9346;52.006;4.720;2023-05-31T03:03:33;8.63;;;3.93;;
18435;SDS011;9346;52.006;4.720;2023-05-31T03:05:59;6.47;;;4.33;;
18435;SDS011;9346;52.006;4.720;2023-05-31T03:08:26;7.57;;;4.10;;
18435;SDS011;9346;52.006;4.720;2023-05-31T03:10:56;7.13;;;4.50;;
18435;SDS011;9346;52.006;4.720;2023-05-31T03:13:23;9.23;;;4.97;;
18435;SDS011;9346;52.006;4.720;2023-05-31T03:15:50;7.83;;;4.40;;
18435;SDS011;9346;52.006;4.720;2023-05-31T03:18:17;8.70;;;4.50;;
18435;SDS011;9346;52.006;4.720;2023-05-31T03:20:44;7.60;;;3.90;;
18435;SDS011;9346;52.006;4.720;2023-05-31T03:23:11;6.93;;;4.43;;
18435;SDS011;9346;52.006;4.720;2023-05-31T03:25:37;11.17;;;4.67;;
18435;SDS011;9346;52.006;4.720;2023-05-31T03:28:06;8.00;;;3.80;;
18435;SDS011;9346;52.006;4.720;2023-05-31T03:30:33;6.27;;;4.40;;
18435;SDS011;9346;52.006;4.720;2023-05-31T03:33:01;7.57;;;3.90;;
18435;SDS011;9346;52.006;4.720;2023-05-31T03:35:28;6.00;;;3.70;;
18435;SDS011;9346;52.006;4.720;2023-05-31T03:37:55;11.73;;;4.70;;
18435;SDS011;9346;52.006;4.720;2023-05-31T03:40:24;6.73;;;3.70;;
18435;SDS011;9346;52.006;4.720;2023-05-31T03:42:53;8.07;;;4.93;;
18435;SDS011;9346;52.006;4.720;2023-05-31T03:45:22;6.17;;;3.63;;
18435;SDS011;9346;52.006;4.720;2023-05-31T03:47:49;7.77;;;4.37;;
18435;SDS011;9346;52.006;4.720;2023-05-31T03:50:16;8.97;;;4.40;;
18435;SDS011;9346;52.006;4.720;2023-05-31T03:52:43;8.37;;;4.87;;
18435;SDS011;9346;52.006;4.720;2023-05-31T03:55:10;9.07;;;3.87;;
18435;SDS011;9346;52.006;4.720;2023-05-31T03:57:38;10.17;;;4.13;;
18435;SDS011;9346;52.006;4.720;2023-05-31T04:00:06;6.03;;;3.67;;
18435;SDS011;9346;52.006;4.720;2023-05-31T04:02:37;7.50;;;4.30;;
18435;SDS011;9346;52.006;4.720;2023-05-31T04:05:06;9.33;;;3.77;;
18435;SDS011;9346;52.006;4.720;2023-05-31T04:07:33;6.67;;;3.70;;
18435;SDS011;9346;52.006;4.720;2023-05-31T04:10:00;5.60;;;3.73;;
18435;SDS011;9346;52.006;4.720;2023-05-31T04:12:28;7.03;;;4.17;;
18435;SDS011;9346;52.006;4.720;2023-05-31T04:14:55;8.87;;;4.33;;
18435;SDS011;9346;52.006;4.720;2023-05-31T04:17:22;10.93;;;4.70;;
18435;SDS011;9346;52.006;4.720;2023-05-31T04:19:52;8.80;;;4.00;;
18435;SDS011;9346;52.006;4.720;2023-05-31T04:22:19;12.33;;;4.67;;
18435;SDS011;9346;52.006;4.720;2023-05-31T04:24:47;7.17;;;4.50;;
18435;SDS011;9346;52.006;4.720;2023-05-31T04:27:14;11.27;;;5.50;;
18435;SDS011;9346;52.006;4.720;2023-05-31T04:29:43;8.93;;;4.57;;
18435;SDS011;9346;52.006;4.720;2023-05-31T04:32:10;8.80;;;5.00;;
18435;SDS011;9346;52.006;4.720;2023-05-31T04:34:39;7.83;;;4.27;;
18435;SDS011;9346;52.006;4.720;2023-05-31T04:37:08;7.53;;;4.73;;
18435;SDS011;9346;52.006;4.720;2023-05-31T04:39:35;8.40;;;4.37;;
18435;SDS011;9346;52.006;4.720;2023-05-31T04:42:03;9.33;;;4.73;;
18435;SDS011;9346;52.006;4.720;2023-05-31T04:44:30;9.73;;;4.60;;
18435;SDS011;9346;52.006;4.720;2023-05-31T04:46:58;8.63;;;4.87;;
18435;SDS011;9346;52.006;4.720;2023-05-31T04:49:25;8.70;;;4.40;;
18435;SDS011;9346;52.006;4.720;2023-05-31T04:51:52;7.30;;;4.40;;
18435;SDS011;9346;52.006;4.720;2023-05-31T04:54:21;11.27;;;5.13;;
18435;SDS011;9346;52.006;4.720;2023-05-31T04:56:48;10.13;;;5.03;;
18435;SDS011;9346;52.006;4.720;2023-05-31T04:59:15;8.70;;;4.83;;
18435;SDS011;9346;52.006;4.720;2023-05-31T05:01:42;11.43;;;5.07;;
18435;SDS011;9346;52.006;4.720;2023-05-31T05:04:09;10.53;;;5.33;;
18435;SDS011;9346;52.006;4.720;2023-05-31T05:06:36;8.67;;;5.03;;
18435;SDS011;9346;52.006;4.720;2023-05-31T05:09:05;9.23;;;4.80;;
18435;SDS011;9346;52.006;4.720;2023-05-31T05:11:34;9.17;;;5.03;;
18435;SDS011;9346;52.006;4.720;2023-05-31T05:14:01;8.77;;;5.30;;
18435;SDS011;9346;52.006;4.720;2023-05-31T05:16:29;13.00;;;5.87;;
18435;SDS011;9346;52.006;4.720;2023-05-31T05:18:56;12.20;;;6.87;;
18435;SDS011;9346;52.006;4.720;2023-05-31T05:21:23;7.30;;;4.90;;
18435;SDS011;9346;52.006;4.720;2023-05-31T05:23:50;9.57;;;5.37;;
18435;SDS011;9346;52.006;4.720;2023-05-31T05:26:17;9.97;;;6.10;;
18435;SDS011;9346;52.006;4.720;2023-05-31T05:28:49;11.67;;;5.53;;
18435;SDS011;9346;52.006;4.720;2023-05-31T05:31:16;12.30;;;6.13;;
18435;SDS011;9346;52.006;4.720;2023-05-31T05:33:43;14.57;;;6.10;;
18435;SDS011;9346;52.006;4.720;2023-05-31T05:36:10;9.33;;;5.40;;
18435;SDS011;9346;52.006;4.720;2023-05-31T05:38:38;12.27;;;6.07;;
18435;SDS011;9346;52.006;4.720;2023-05-31T05:41:05;14.57;;;6.47;;
18435;SDS011;9346;52.006;4.720;2023-05-31T05:43:36;12.70;;;6.20;;
18435;SDS011;9346;52.006;4.720;2023-05-31T05:46:04;16.67;;;5.90;;
18435;SDS011;9346;52.006;4.720;2023-05-31T05:48:32;10.57;;;5.40;;
18435;SDS011;9346;52.006;4.720;2023-05-31T05:51:00;13.13;;;5.90;;
18435;SDS011;9346;52.006;4.720;2023-05-31T05:53:28;13.43;;;5.43;;
18435;SDS011;9346;52.006;4.720;2023-05-31T05:55:56;13.37;;;7.10;;
18435;SDS011;9346;52.006;4.720;2023-05-31T05:58:23;10.40;;;6.57;;
18435;SDS011;9346;52.006;4.720;2023-05-31T06:00:50;11.33;;;5.97;;
18435;SDS011;9346;52.006;4.720;2023-05-31T06:03:19;12.07;;;6.23;;
18435;SDS011;9346;52.006;4.720;2023-05-31T06:05:48;10.67;;;6.13;;
18435;SDS011;9346;52.006;4.720;2023-05-31T06:08:15;10.20;;;6.13;;
18435;SDS011;9346;52.006;4.720;2023-05-31T06:10:43;12.27;;;6.03;;
18435;SDS011;9346;52.006;4.720;2023-05-31T06:13:10;12.53;;;5.73;;
18435;SDS011;9346;52.006;4.720;2023-05-31T06:15:40;10.30;;;6.57;;
18435;SDS011;9346;52.006;4.720;2023-05-31T06:18:08;10.90;;;6.43;;
18435;SDS011;9346;52.006;4.720;2023-05-31T06:20:37;12.03;;;6.30;;
18435;SDS011;9346;52.006;4.720;2023-05-31T06:23:04;19.77;;;5.37;;
18435;SDS011;9346;52.006;4.720;2023-05-31T06:25:31;12.60;;;6.43;;
18435;SDS011;9346;52.006;4.720;2023-05-31T06:27:58;14.47;;;6.17;;
18435;SDS011;9346;52.006;4.720;2023-05-31T06:30:25;12.93;;;6.97;;
18435;SDS011;9346;52.006;4.720;2023-05-31T06:32:52;9.87;;;6.77;;
18435;SDS011;9346;52.006;4.720;2023-05-31T06:35:20;10.77;;;6.33;;
18435;SDS011;9346;52.006;4.720;2023-05-31T06:37:49;16.73;;;5.67;;
18435;SDS011;9346;52.006;4.720;2023-05-31T06:40:18;8.80;;;5.60;;
18435;SDS011;9346;52.006;4.720;2023-05-31T06:42:45;13.60;;;6.27;;
18435;SDS011;9346;52.006;4.720;2023-05-31T06:45:12;11.10;;;5.77;;
18435;SDS011;9346;52.006;4.720;2023-05-31T06:47:40;13.90;;;5.90;;
18435;SDS011;9346;52.006;4.720;2023-05-31T06:50:09;15.77;;;6.07;;
18435;SDS011;9346;52.006;4.720;2023-05-31T06:52:37;10.50;;;5.67;;
18435;SDS011;9346;52.006;4.720;2023-05-31T06:55:07;14.13;;;6.20;;
18435;SDS011;9346;52.006;4.720;2023-05-31T06:57:34;10.37;;;5.83;;
18435;SDS011;9346;52.006;4.720;2023-05-31T07:00:02;9.33;;;5.43;;
18435;SDS011;9346;52.006;4.720;2023-05-31T07:02:33;12.93;;;6.47;;
18435;SDS011;9346;52.006;4.720;2023-05-31T07:05:01;9.40;;;5.23;;
18435;SDS011;9346;52.006;4.720;2023-05-31T07:07:28;11.00;;;6.30;;
18435;SDS011;9346;52.006;4.720;2023-05-31T07:09:56;12.10;;;5.90;;
18435;SDS011;9346;52.006;4.720;2023-05-31T07:12:25;10.13;;;5.03;;
18435;SDS011;9346;52.006;4.720;2023-05-31T07:14:52;10.80;;;5.50;;
18435;SDS011;9346;52.006;4.720;2023-05-31T07:17:19;15.53;;;6.93;;
18435;SDS011;9346;52.006;4.720;2023-05-31T07:19:47;9.97;;;5.13;;
18435;SDS011;9346;52.006;4.720;2023-05-31T07:22:15;7.53;;;5.13;;
18435;SDS011;9346;52.006;4.720;2023-05-31T07:24:43;12.83;;;6.70;;
18435;SDS011;9346;52.006;4.720;2023-05-31T07:27:10;10.33;;;5.23;;
18435;SDS011;9346;52.006;4.720;2023-05-31T07:29:39;7.73;;;5.23;;
18435;SDS011;9346;52.006;4.720;2023-05-31T07:32:06;8.53;;;5.70;;
18435;SDS011;9346;52.006;4.720;2023-05-31T07:34:32;8.97;;;5.63;;
18435;SDS011;9346;52.006;4.720;2023-05-31T07:36:59;10.13;;;5.13;;
18435;SDS011;9346;52.006;4.720;2023-05-31T07:39:26;9.17;;;5.20;;
18435;SDS011;9346;52.006;4.720;2023-05-31T07:41:55;9.63;;;5.20;;
18435;SDS011;9346;52.006;4.720;2023-05-31T07:44:23;9.57;;;5.50;;
18435;SDS011;9346;52.006;4.720;2023-05-31T07:46:52;9.47;;;5.57;;
18435;SDS011;9346;52.006;4.720;2023-05-31T07:49:18;10.40;;;5.50;;
18435;SDS011;9346;52.006;4.720;2023-05-31T07:51:45;10.10;;;5.33;;
18435;SDS011;9346;52.006;4.720;2023-05-31T07:54:12;9.77;;;5.30;;
18435;SDS011;9346;52.006;4.720;2023-05-31T07:56:39;9.13;;;5.30;;
18435;SDS011;9346;52.006;4.720;2023-05-31T07:59:06;7.83;;;4.73;;
18435;SDS011;9346;52.006;4.720;2023-05-31T08:01:33;12.43;;;4.90;;
18435;SDS011;9346;52.006;4.720;2023-05-31T08:04:06;10.80;;;5.60;;
18435;SDS011;9346;52.006;4.720;2023-05-31T08:06:34;9.47;;;5.23;;
18435;SDS011;9346;52.006;4.720;2023-05-31T08:09:01;9.13;;;5.03;;
18435;SDS011;9346;52.006;4.720;2023-05-31T08:11:29;7.73;;;4.77;;
18435;SDS011;9346;52.006;4.720;2023-05-31T08:13:57;9.53;;;5.67;;
18435;SDS011;9346;52.006;4.720;2023-05-31T08:16:23;8.03;;;5.37;;
18435;SDS011;9346;52.006;4.720;2023-05-31T08:18:50;8.20;;;4.50;;
18435;SDS011;9346;52.006;4.720;2023-05-31T08:21:22;6.87;;;4.87;;
18435;SDS011;9346;52.006;4.720;2023-05-31T08:23:49;6.93;;;4.90;;
18435;SDS011;9346;52.006;4.720;2023-05-31T08:26:16;9.23;;;4.57;;
18435;SDS011;9346;52.006;4.720;2023-05-31T08:28:43;7.87;;;5.10;;
18435;SDS011;9346;52.006;4.720;2023-05-31T08:31:10;8.10;;;4.23;;
18435;SDS011;9346;52.006;4.720;2023-05-31T08:33:37;9.83;;;4.87;;
18435;SDS011;9346;52.006;4.720;2023-05-31T08:36:05;10.23;;;5.57;;
18435;SDS011;9346;52.006;4.720;2023-05-31T08:38:34;7.40;;;5.00;;
18435;SDS011;9346;52.006;4.720;2023-05-31T08:41:01;7.80;;;4.40;;
18435;SDS011;9346;52.006;4.720;2023-05-31T08:43:29;7.37;;;4.30;;
18435;SDS011;9346;52.006;4.720;2023-05-31T08:45:58;8.70;;;5.63;;
18435;SDS011;9346;52.006;4.720;2023-05-31T08:48:26;11.47;;;5.37;;
18435;SDS011;9346;52.006;4.720;2023-05-31T08:50:57;9.00;;;4.77;;
18435;SDS011;9346;52.006;4.720;2023-05-31T08:53:25;9.37;;;5.37;;
18435;SDS011;9346;52.006;4.720;2023-05-31T08:55:54;12.57;;;5.37;;
18435;SDS011;9346;52.006;4.720;2023-05-31T08:58:22;9.20;;;5.37;;
18435;SDS011;9346;52.006;4.720;2023-05-31T09:00:49;9.90;;;4.70;;
18435;SDS011;9346;52.006;4.720;2023-05-31T09:03:17;6.77;;;4.27;;
18435;SDS011;9346;52.006;4.720;2023-05-31T09:05:47;8.40;;;4.40;;
18435;SDS011;9346;52.006;4.720;2023-05-31T09:08:14;8.20;;;4.50;;
18435;SDS011;9346;52.006;4.720;2023-05-31T09:10:41;6.40;;;3.63;;
18435;SDS011;9346;52.006;4.720;2023-05-31T09:13:10;7.60;;;4.33;;
18435;SDS011;9346;52.006;4.720;2023-05-31T09:15:37;8.67;;;4.93;;
18435;SDS011;9346;52.006;4.720;2023-05-31T09:18:13;7.43;;;4.63;;
18435;SDS011;9346;52.006;4.720;2023-05-31T09:20:42;8.33;;;4.67;;
18435;SDS011;9346;52.006;4.720;2023-05-31T09:23:09;8.33;;;4.90;;
18435;SDS011;9346;52.006;4.720;2023-05-31T09:25:43;10.23;;;5.17;;
18435;SDS011;9346;52.006;4.720;2023-05-31T09:28:13;9.20;;;4.73;;
18435;SDS011;9346;52.006;4.720;2023-05-31T09:30:40;8.90;;;5.33;;
18435;SDS011;9346;52.006;4.720;2023-05-31T09:33:08;6.53;;;4.20;;
18435;SDS011;9346;52.006;4.720;2023-05-31T09:35:35;8.37;;;4.40;;
18435;SDS011;9346;52.006;4.720;2023-05-31T09:38:05;7.10;;;4.63;;
18435;SDS011;9346;52.006;4.720;2023-05-31T09:40:33;9.53;;;5.10;;
18435;SDS011;9346;52.006;4.720;2023-05-31T09:43:00;7.93;;;4.30;;
18435;SDS011;9346;52.006;4.720;2023-05-31T09:45:29;9.23;;;4.47;;
18435;SDS011;9346;52.006;4.720;2023-05-31T09:47:56;7.03;;;4.47;;
18435;SDS011;9346;52.006;4.720;2023-05-31T09:50:25;6.70;;;4.23;;
18435;SDS011;9346;52.006;4.720;2023-05-31T09:52:55;9.00;;;5.17;;
18435;SDS011;9346;52.006;4.720;2023-05-31T09:55:24;8.57;;;4.17;;
18435;SDS011;9346;52.006;4.720;2023-05-31T09:58:04;9.33;;;5.03;;
18435;SDS011;9346;52.006;4.720;2023-05-31T10:00:33;9.10;;;4.90;;
18435;SDS011;9346;52.006;4.720;2023-05-31T10:03:00;10.07;;;5.93;;
18435;SDS011;9346;52.006;4.720;2023-05-31T10:05:29;14.30;;;5.33;;
18435;SDS011;9346;52.006;4.720;2023-05-31T10:07:56;7.67;;;5.20;;
18435;SDS011;9346;52.006;4.720;2023-05-31T10:10:23;9.00;;;5.30;;
18435;SDS011;9346;52.006;4.720;2023-05-31T10:12:51;12.13;;;5.43;;
18435;SDS011;9346;52.006;4.720;2023-05-31T10:15:21;11.03;;;5.17;;
18435;SDS011;9346;52.006;4.720;2023-05-31T10:20:38;6.93;;;4.50;;
18435;SDS011;9346;52.006;4.720;2023-05-31T10:23:09;8.87;;;4.90;;
18435;SDS011;9346;52.006;4.720;2023-05-31T10:25:44;7.37;;;4.60;;
18435;SDS011;9346;52.006;4.720;2023-05-31T10:28:17;7.57;;;5.13;;
18435;SDS011;9346;52.006;4.720;2023-05-31T10:30:48;8.83;;;4.83;;
18435;SDS011;9346;52.006;4.720;2023-05-31T10:33:19;9.10;;;5.13;;
18435;SDS011;9346;52.006;4.720;2023-05-31T10:35:47;7.80;;;5.30;;
18435;SDS011;9346;52.006;4.720;2023-05-31T10:38:16;9.93;;;5.03;;
18435;SDS011;9346;52.006;4.720;2023-05-31T10:40:48;9.70;;;4.93;;
18435;SDS011;9346;52.006;4.720;2023-05-31T10:43:20;6.30;;;4.47;;
18435;SDS011;9346;52.006;4.720;2023-05-31T10:45:51;13.37;;;6.00;;
18435;SDS011;9346;52.006;4.720;2023-05-31T10:48:26;7.90;;;4.57;;
18435;SDS011;9346;52.006;4.720;2023-05-31T10:50:58;7.10;;;4.30;;
18435;SDS011;9346;52.006;4.720;2023-05-31T10:53:27;8.67;;;4.87;;
18435;SDS011;9346;52.006;4.720;2023-05-31T10:56:00;9.80;;;5.53;;
18435;SDS011;9346;52.006;4.720;2023-05-31T10:58:30;8.77;;;5.00;;
18435;SDS011;9346;52.006;4.720;2023-05-31T11:01:02;8.97;;;5.40;;
18435;SDS011;9346;52.006;4.720;2023-05-31T11:03:32;12.93;;;5.37;;
18435;SDS011;9346;52.006;4.720;2023-05-31T11:06:01;9.17;;;5.17;;
18435;SDS011;9346;52.006;4.720;2023-05-31T11:08:29;10.37;;;4.93;;
18435;SDS011;9346;52.006;4.720;2023-05-31T11:13:59;7.87;;;5.10;;
18435;SDS011;9346;52.006;4.720;2023-05-31T11:16:29;12.00;;;5.90;;
18435;SDS011;9346;52.006;4.720;2023-05-31T11:19:03;11.30;;;5.27;;
18435;SDS011;9346;52.006;4.720;2023-05-31T11:21:50;9.07;;;5.23;;
18435;SDS011;9346;52.006;4.720;2023-05-31T11:24:27;9.97;;;4.73;;
18435;SDS011;9346;52.006;4.720;2023-05-31T11:26:55;6.90;;;4.60;;
18435;SDS011;9346;52.006;4.720;2023-05-31T11:29:23;8.30;;;4.93;;
18435;SDS011;9346;52.006;4.720;2023-05-31T11:31:57;6.60;;;4.80;;
18435;SDS011;9346;52.006;4.720;2023-05-31T11:34:28;10.57;;;5.00;;
18435;SDS011;9346;52.006;4.720;2023-05-31T11:36:59;9.27;;;6.17;;
18435;SDS011;9346;52.006;4.720;2023-05-31T11:39:26;7.57;;;4.93;;
18435;SDS011;9346;52.006;4.720;2023-05-31T11:41:55;6.23;;;4.17;;
18435;SDS011;9346;52.006;4.720;2023-05-31T11:44:25;7.13;;;4.70;;
18435;SDS011;9346;52.006;4.720;2023-05-31T11:47:01;10.87;;;5.53;;
18435;SDS011;9346;52.006;4.720;2023-05-31T11:49:33;8.03;;;5.23;;
18435;SDS011;9346;52.006;4.720;2023-05-31T11:52:00;6.97;;;4.57;;
18435;SDS011;9346;52.006;4.720;2023-05-31T11:54:28;9.30;;;4.90;;
18435;SDS011;9346;52.006;4.720;2023-05-31T11:56:58;9.20;;;5.87;;
18435;SDS011;9346;52.006;4.720;2023-05-31T11:59:27;8.77;;;4.57;;
18435;SDS011;9346;52.006;4.720;2023-05-31T12:01:58;8.83;;;4.80;;
18435;SDS011;9346;52.006;4.720;2023-05-31T12:04:29;9.13;;;4.50;;
18435;SDS011;9346;52.006;4.720;2023-05-31T12:06:59;7.50;;;4.63;;
18435;SDS011;9346;52.006;4.720;2023-05-31T12:09:26;7.83;;;5.23;;
18435;SDS011;9346;52.006;4.720;2023-05-31T12:11:54;9.23;;;5.53;;
18435;SDS011;9346;52.006;4.720;2023-05-31T12:14:22;6.47;;;4.33;;
18435;SDS011;9346;52.006;4.720;2023-05-31T12:16:51;7.87;;;4.10;;
18435;SDS011;9346;52.006;4.720;2023-05-31T12:19:18;10.20;;;4.93;;
18435;SDS011;9346;52.006;4.720;2023-05-31T12:21:47;6.80;;;4.63;;
18435;SDS011;9346;52.006;4.720;2023-05-31T12:24:16;10.20;;;5.00;;
18435;SDS011;9346;52.006;4.720;2023-05-31T12:26:44;6.13;;;3.77;;
18435;SDS011;9346;52.006;4.720;2023-05-31T12:29:13;8.50;;;4.40;;
18435;SDS011;9346;52.006;4.720;2023-05-31T12:31:41;7.07;;;4.10;;
18435;SDS011;9346;52.006;4.720;2023-05-31T12:34:09;12.13;;;4.90;;
18435;SDS011;9346;52.006;4.720;2023-05-31T12:36:38;7.03;;;4.03;;
18435;SDS011;9346;52.006;4.720;2023-05-31T12:39:08;7.87;;;5.00;;
18435;SDS011;9346;52.006;4.720;2023-05-31T12:41:39;9.43;;;4.30;;
18435;SDS011;9346;52.006;4.720;2023-05-31T12:44:08;8.03;;;4.47;;
18435;SDS011;9346;52.006;4.720;2023-05-31T12:46:39;9.27;;;4.93;;
18435;SDS011;9346;52.006;4.720;2023-05-31T12:49:10;7.10;;;4.93;;
18435;SDS011;9346;52.006;4.720;2023-05-31T12:51:38;6.63;;;3.87;;
18435;SDS011;9346;52.006;4.720;2023-05-31T12:54:09;8.07;;;4.80;;
18435;SDS011;9346;52.006;4.720;2023-05-31T12:56:38;5.73;;;4.33;;
18435;SDS011;9346;52.006;4.720;2023-05-31T12:59:06;6.67;;;4.50;;
18435;SDS011;9346;52.006;4.720;2023-05-31T13:01:33;5.03;;;3.87;;
18435;SDS011;9346;52.006;4.720;2023-05-31T13:04:03;8.30;;;4.80;;
18435;SDS011;9346;52.006;4.720;2023-05-31T13:06:31;7.53;;;4.83;;
18435;SDS011;9346;52.006;4.720;2023-05-31T13:08:58;6.73;;;4.67;;
18435;SDS011;9346;52.006;4.720;2023-05-31T13:11:27;6.23;;;4.40;;
18435;SDS011;9346;52.006;4.720;2023-05-31T13:13:56;6.70;;;4.47;;
18435;SDS011;9346;52.006;4.720;2023-05-31T13:16:22;7.73;;;4.43;;
18435;SDS011;9346;52.006;4.720;2023-05-31T13:18:50;7.87;;;3.73;;
18435;SDS011;9346;52.006;4.720;2023-05-31T13:21:17;4.73;;;3.80;;
18435;SDS011;9346;52.006;4.720;2023-05-31T13:23:43;5.43;;;3.50;;
18435;SDS011;9346;52.006;4.720;2023-05-31T13:26:10;7.63;;;3.87;;
18435;SDS011;9346;52.006;4.720;2023-05-31T13:28:37;6.07;;;3.53;;
18435;SDS011;9346;52.006;4.720;2023-05-31T13:31:06;5.43;;;3.73;;
18435;SDS011;9346;52.006;4.720;2023-05-31T13:33:33;7.97;;;3.13;;
18435;SDS011;9346;52.006;4.720;2023-05-31T13:36:00;4.23;;;2.83;;
18435;SDS011;9346;52.006;4.720;2023-05-31T13:38:28;5.83;;;3.57;;
18435;SDS011;9346;52.006;4.720;2023-05-31T13:40:55;6.87;;;4.10;;
18435;SDS011;9346;52.006;4.720;2023-05-31T13:43:22;7.53;;;3.83;;
18435;SDS011;9346;52.006;4.720;2023-05-31T13:45:50;6.27;;;3.67;;
18435;SDS011;9346;52.006;4.720;2023-05-31T13:48:20;5.63;;;3.63;;
18435;SDS011;9346;52.006;4.720;2023-05-31T13:50:46;5.83;;;3.47;;
18435;SDS011;9346;52.006;4.720;2023-05-31T13:53:13;9.67;;;3.63;;
18435;SDS011;9346;52.006;4.720;2023-05-31T13:55:41;7.63;;;4.00;;
18435;SDS011;9346;52.006;4.720;2023-05-31T13:58:08;5.00;;;3.67;;
18435;SDS011;9346;52.006;4.720;2023-05-31T14:00:35;6.40;;;3.70;;
18435;SDS011;9346;52.006;4.720;2023-05-31T14:03:02;5.40;;;3.80;;
18435;SDS011;9346;52.006;4.720;2023-05-31T14:05:32;5.23;;;3.70;;
18435;SDS011;9346;52.006;4.720;2023-05-31T14:07:59;5.93;;;3.63;;
18435;SDS011;9346;52.006;4.720;2023-05-31T14:10:26;5.37;;;3.67;;
18435;SDS011;9346;52.006;4.720;2023-05-31T14:12:53;5.87;;;3.60;;
18435;SDS011;9346;52.006;4.720;2023-05-31T14:15:20;5.23;;;3.23;;
18435;SDS011;9346;52.006;4.720;2023-05-31T14:17:47;5.93;;;3.80;;
18435;SDS011;9346;52.006;4.720;2023-05-31T14:20:14;4.80;;;3.37;;
18435;SDS011;9346;52.006;4.720;2023-05-31T14:22:43;7.90;;;4.00;;
18435;SDS011;9346;52.006;4.720;2023-05-31T14:25:10;5.13;;;4.03;;
18435;SDS011;9346;52.006;4.720;2023-05-31T14:27:37;9.47;;;4.30;;
18435;SDS011;9346;52.006;4.720;2023-05-31T14:30:05;6.47;;;3.83;;
18435;SDS011;9346;52.006;4.720;2023-05-31T14:32:33;6.17;;;4.07;;
18435;SDS011;9346;52.006;4.720;2023-05-31T14:35:00;5.47;;;3.47;;
18435;SDS011;9346;52.006;4.720;2023-05-31T14:37:27;8.53;;;4.67;;
18435;SDS011;9346;52.006;4.720;2023-05-31T14:39:56;5.53;;;3.93;;
18435;SDS011;9346;52.006;4.720;2023-05-31T14:42:23;8.27;;;4.20;;
18435;SDS011;9346;52.006;4.720;2023-05-31T14:44:50;7.57;;;3.83;;
18435;SDS011;9346;52.006;4.720;2023-05-31T14:47:17;4.43;;;3.60;;
18435;SDS011;9346;52.006;4.720;2023-05-31T14:49:43;6.80;;;3.87;;
18435;SDS011;9346;52.006;4.720;2023-05-31T14:52:10;5.10;;;4.10;;
18435;SDS011;9346;52.006;4.720;2023-05-31T14:54:37;9.50;;;4.37;;
18435;SDS011;9346;52.006;4.720;2023-05-31T14:57:06;5.50;;;3.73;;
18435;SDS011;9346;52.006;4.720;2023-05-31T14:59:34;10.23;;;4.30;;
18435;SDS011;9346;52.006;4.720;2023-05-31T15:02:00;4.63;;;3.97;;
18435;SDS011;9346;52.006;4.720;2023-05-31T15:04:27;7.30;;;4.20;;
18435;SDS011;9346;52.006;4.720;2023-05-31T15:06:54;6.93;;;4.63;;
18435;SDS011;9346;52.006;4.720;2023-05-31T15:09:21;8.63;;;4.67;;